N62ET KCAE-KMGM
Flight info
| Callsign | N62ET |
|---|---|
| Flight time | 2h 1m |
| Altitude | 10000 |
| Route | WANSA |
| Aircraft | DA62/L-SDFGRY/C |
Departure
| Time | 2026-05-05 08:21 |
|---|---|
| Airport | Columbia Metropolitan Airport (KCAE) |
Arrival
| Time | 2026-05-05 10:22 |
|---|---|
| Airport | Montgomery Regional (Dannelly Field) Airport (KMGM) |
| Time | Latitude | Longitude | Altitude | Speed | Heading |
|---|---|---|---|---|---|
| 2026-05-05 08:15 | 33.93507 | -81.11128 | 204 ft | 0 kts | 161° |
| 2026-05-05 08:17 | 33.93506 | -81.11128 | 204 ft | 1 kts | 161° |
| 2026-05-05 08:17 | 33.93494 | -81.11076 | 204 ft | 13 kts | 47° |
| 2026-05-05 08:17 | 33.93577 | -81.11007 | 205 ft | 15 kts | 343° |
| 2026-05-05 08:17 | 33.93657 | -81.11093 | 207 ft | 16 kts | 315° |
| 2026-05-05 08:18 | 33.93739 | -81.11118 | 209 ft | 0 kts | 38° |
| 2026-05-05 08:19 | 33.93783 | -81.11073 | 209 ft | 13 kts | 33° |
| 2026-05-05 08:19 | 33.93838 | -81.11136 | 210 ft | 20 kts | 284° |
| 2026-05-05 08:19 | 33.93927 | -81.11549 | 213 ft | 74 kts | 285° |
| 2026-05-05 08:20 | 33.94072 | -81.12228 | 296 ft | 85 kts | 285° |
| 2026-05-05 08:20 | 33.94228 | -81.12946 | 415 ft | 91 kts | 285° |
| 2026-05-05 08:20 | 33.94388 | -81.13686 | 587 ft | 92 kts | 284° |
| 2026-05-05 08:20 | 33.94541 | -81.14454 | 763 ft | 99 kts | 283° |
| 2026-05-05 08:21 | 33.94706 | -81.15237 | 1060 ft | 96 kts | 284° |
| 2026-05-05 08:21 | 33.94872 | -81.16017 | 1353 ft | 95 kts | 283° |
| 2026-05-05 08:21 | 33.95036 | -81.16781 | 1640 ft | 94 kts | 284° |
| 2026-05-05 08:21 | 33.95202 | -81.17541 | 1926 ft | 94 kts | 284° |
| 2026-05-05 08:22 | 33.95246 | -81.18303 | 2204 ft | 93 kts | 257° |
| 2026-05-05 08:22 | 33.95068 | -81.19041 | 2489 ft | 92 kts | 254° |
| 2026-05-05 08:22 | 33.94880 | -81.19781 | 2775 ft | 92 kts | 254° |
| 2026-05-05 08:22 | 33.94696 | -81.20509 | 3057 ft | 91 kts | 254° |
| 2026-05-05 08:23 | 33.94513 | -81.21236 | 3339 ft | 91 kts | 255° |
| 2026-05-05 08:23 | 33.94329 | -81.21972 | 3625 ft | 90 kts | 255° |
| 2026-05-05 08:23 | 33.94150 | -81.22691 | 3905 ft | 90 kts | 255° |
| 2026-05-05 08:23 | 33.93969 | -81.23418 | 4189 ft | 90 kts | 255° |
| 2026-05-05 08:24 | 33.93794 | -81.24124 | 4466 ft | 89 kts | 255° |
| 2026-05-05 08:24 | 33.93617 | -81.24837 | 4745 ft | 89 kts | 255° |
| 2026-05-05 08:24 | 33.93442 | -81.25543 | 5023 ft | 88 kts | 255° |
| 2026-05-05 08:24 | 33.93269 | -81.26245 | 5299 ft | 88 kts | 255° |
| 2026-05-05 08:25 | 33.93094 | -81.26952 | 5578 ft | 87 kts | 255° |
| 2026-05-05 08:25 | 33.92924 | -81.27643 | 5852 ft | 87 kts | 255° |
| 2026-05-05 08:25 | 33.92750 | -81.28345 | 6130 ft | 87 kts | 255° |
| 2026-05-05 08:25 | 33.92580 | -81.29035 | 6404 ft | 86 kts | 255° |
| 2026-05-05 08:26 | 33.92410 | -81.29722 | 6677 ft | 86 kts | 255° |
| 2026-05-05 08:26 | 33.92242 | -81.30402 | 6948 ft | 85 kts | 255° |
| 2026-05-05 08:26 | 33.92073 | -81.31086 | 7220 ft | 85 kts | 256° |
| 2026-05-05 08:26 | 33.91905 | -81.31768 | 7493 ft | 85 kts | 256° |
| 2026-05-05 08:27 | 33.91739 | -81.32443 | 7763 ft | 84 kts | 256° |
| 2026-05-05 08:27 | 33.91572 | -81.33118 | 8033 ft | 84 kts | 256° |
| 2026-05-05 08:27 | 33.91408 | -81.33781 | 8299 ft | 84 kts | 256° |
| 2026-05-05 08:27 | 33.91242 | -81.34454 | 8570 ft | 83 kts | 256° |
| 2026-05-05 08:28 | 33.91078 | -81.35117 | 8836 ft | 83 kts | 256° |
| 2026-05-05 08:28 | 33.90915 | -81.35778 | 9103 ft | 82 kts | 256° |
| 2026-05-05 08:28 | 33.90752 | -81.36437 | 9369 ft | 82 kts | 256° |
| 2026-05-05 08:28 | 33.90590 | -81.37089 | 9632 ft | 82 kts | 256° |
| 2026-05-05 08:29 | 33.90430 | -81.37737 | 9893 ft | 82 kts | 256° |
| 2026-05-05 08:29 | 33.90256 | -81.38448 | 9998 ft | 96 kts | 256° |
| 2026-05-05 08:29 | 33.90051 | -81.39287 | 10015 ft | 112 kts | 256° |
| 2026-05-05 08:30 | 33.89560 | -81.41286 | 10007 ft | 134 kts | 255° |
| 2026-05-05 08:30 | 33.89285 | -81.42400 | 10003 ft | 140 kts | 255° |
| 2026-05-05 08:30 | 33.89002 | -81.43537 | 10001 ft | 144 kts | 255° |
| 2026-05-05 08:30 | 33.88715 | -81.44695 | 9999 ft | 146 kts | 255° |
| 2026-05-05 08:31 | 33.88421 | -81.45881 | 9998 ft | 148 kts | 255° |
| 2026-05-05 08:31 | 33.88127 | -81.47064 | 9998 ft | 149 kts | 255° |
| 2026-05-05 08:31 | 33.87827 | -81.48270 | 9997 ft | 149 kts | 255° |
| 2026-05-05 08:31 | 33.87530 | -81.49465 | 9997 ft | 150 kts | 255° |
| 2026-05-05 08:32 | 33.87227 | -81.50684 | 9996 ft | 150 kts | 255° |
| 2026-05-05 08:32 | 33.86928 | -81.51885 | 9996 ft | 150 kts | 255° |
| 2026-05-05 08:32 | 33.86629 | -81.53088 | 9996 ft | 150 kts | 255° |
| 2026-05-05 08:32 | 33.86327 | -81.54303 | 9996 ft | 150 kts | 255° |
| 2026-05-05 08:33 | 33.86025 | -81.55513 | 9996 ft | 150 kts | 255° |
| 2026-05-05 08:33 | 33.85724 | -81.56719 | 9996 ft | 150 kts | 255° |
| 2026-05-05 08:33 | 33.85426 | -81.57917 | 9996 ft | 150 kts | 255° |
| 2026-05-05 08:33 | 33.85120 | -81.59141 | 9996 ft | 150 kts | 255° |
| 2026-05-05 08:34 | 33.84819 | -81.60348 | 9995 ft | 150 kts | 255° |
| 2026-05-05 08:34 | 33.84520 | -81.61549 | 9995 ft | 150 kts | 255° |
| 2026-05-05 08:34 | 33.84220 | -81.62749 | 9995 ft | 150 kts | 255° |
| 2026-05-05 08:34 | 33.83916 | -81.63966 | 9995 ft | 150 kts | 255° |
| 2026-05-05 08:35 | 33.83615 | -81.65170 | 9996 ft | 150 kts | 255° |
| 2026-05-05 08:35 | 33.83314 | -81.66371 | 10002 ft | 151 kts | 255° |
| 2026-05-05 08:35 | 33.83010 | -81.67590 | 10003 ft | 151 kts | 255° |
| 2026-05-05 08:35 | 33.82714 | -81.68806 | 10017 ft | 151 kts | 253° |
| 2026-05-05 08:36 | 33.82409 | -81.70022 | 10020 ft | 151 kts | 252° |
| 2026-05-05 08:36 | 33.82103 | -81.71230 | 10021 ft | 151 kts | 252° |
| 2026-05-05 08:36 | 33.81798 | -81.72442 | 10021 ft | 152 kts | 252° |
| 2026-05-05 08:36 | 33.81492 | -81.73656 | 10021 ft | 152 kts | 252° |
| 2026-05-05 08:37 | 33.81187 | -81.74867 | 10021 ft | 152 kts | 252° |
| 2026-05-05 08:37 | 33.80879 | -81.76095 | 10021 ft | 152 kts | 252° |
| 2026-05-05 08:37 | 33.80576 | -81.77299 | 10021 ft | 152 kts | 252° |
| 2026-05-05 08:37 | 33.80267 | -81.78530 | 10020 ft | 152 kts | 252° |
| 2026-05-05 08:38 | 33.79962 | -81.79741 | 10020 ft | 152 kts | 252° |
| 2026-05-05 08:38 | 33.79655 | -81.80960 | 10020 ft | 152 kts | 252° |
| 2026-05-05 08:38 | 33.79348 | -81.82181 | 10020 ft | 152 kts | 252° |
| 2026-05-05 08:38 | 33.79040 | -81.83403 | 10020 ft | 152 kts | 252° |
| 2026-05-05 08:39 | 33.78734 | -81.84619 | 10020 ft | 152 kts | 252° |
| 2026-05-05 08:39 | 33.78428 | -81.85837 | 10020 ft | 152 kts | 252° |
| 2026-05-05 08:39 | 33.78120 | -81.87056 | 10020 ft | 152 kts | 252° |
| 2026-05-05 08:39 | 33.77815 | -81.88268 | 10020 ft | 152 kts | 252° |
| 2026-05-05 08:40 | 33.77508 | -81.89481 | 10019 ft | 152 kts | 252° |
| 2026-05-05 08:40 | 33.77199 | -81.90707 | 10019 ft | 152 kts | 252° |
| 2026-05-05 08:40 | 33.76893 | -81.91921 | 10019 ft | 152 kts | 252° |
| 2026-05-05 08:40 | 33.76585 | -81.93140 | 10019 ft | 152 kts | 252° |
| 2026-05-05 08:41 | 33.76280 | -81.94344 | 10019 ft | 152 kts | 252° |
| 2026-05-05 08:41 | 33.75969 | -81.95572 | 10019 ft | 152 kts | 252° |
| 2026-05-05 08:41 | 33.75665 | -81.96776 | 10019 ft | 152 kts | 252° |
| 2026-05-05 08:41 | 33.75356 | -81.97997 | 10019 ft | 152 kts | 252° |
| 2026-05-05 08:42 | 33.75050 | -81.99204 | 10019 ft | 152 kts | 252° |
| 2026-05-05 08:42 | 33.74741 | -82.00425 | 10019 ft | 152 kts | 252° |
| 2026-05-05 08:42 | 33.74432 | -82.01646 | 10019 ft | 152 kts | 252° |
| 2026-05-05 08:42 | 33.74127 | -82.02846 | 10018 ft | 152 kts | 252° |
| 2026-05-05 08:43 | 33.73818 | -82.04065 | 10018 ft | 152 kts | 252° |
| 2026-05-05 08:43 | 33.73512 | -82.05271 | 10018 ft | 152 kts | 252° |
| 2026-05-05 08:43 | 33.73203 | -82.06488 | 10018 ft | 152 kts | 252° |
| 2026-05-05 08:43 | 33.72893 | -82.07707 | 10018 ft | 152 kts | 252° |
| 2026-05-05 08:44 | 33.72588 | -82.08910 | 10018 ft | 151 kts | 252° |
| 2026-05-05 08:44 | 33.72277 | -82.10132 | 10018 ft | 151 kts | 252° |
| 2026-05-05 08:44 | 33.71971 | -82.11334 | 10018 ft | 151 kts | 252° |
| 2026-05-05 08:44 | 33.71661 | -82.12551 | 10018 ft | 151 kts | 252° |
| 2026-05-05 08:45 | 33.71352 | -82.13767 | 10018 ft | 151 kts | 252° |
| 2026-05-05 08:45 | 33.71046 | -82.14967 | 10017 ft | 151 kts | 252° |
| 2026-05-05 08:45 | 33.70721 | -82.16177 | 10017 ft | 151 kts | 250° |
| 2026-05-05 08:45 | 33.70357 | -82.17371 | 10017 ft | 151 kts | 250° |
| 2026-05-05 08:46 | 33.69995 | -82.18552 | 10017 ft | 151 kts | 250° |
| 2026-05-05 08:46 | 33.69629 | -82.19738 | 10017 ft | 151 kts | 250° |
| 2026-05-05 08:46 | 33.69264 | -82.20920 | 10017 ft | 151 kts | 250° |
| 2026-05-05 08:46 | 33.68893 | -82.22115 | 10017 ft | 151 kts | 250° |
| 2026-05-05 08:47 | 33.68528 | -82.23292 | 10017 ft | 151 kts | 250° |
| 2026-05-05 08:47 | 33.68161 | -82.24474 | 10017 ft | 151 kts | 250° |
| 2026-05-05 08:47 | 33.67789 | -82.25669 | 10017 ft | 151 kts | 250° |
| 2026-05-05 08:47 | 33.67421 | -82.26852 | 10016 ft | 151 kts | 250° |
| 2026-05-05 08:48 | 33.67052 | -82.28036 | 10016 ft | 151 kts | 250° |
| 2026-05-05 08:48 | 33.66685 | -82.29216 | 10016 ft | 151 kts | 250° |
| 2026-05-05 08:48 | 33.66317 | -82.30396 | 10016 ft | 151 kts | 250° |
| 2026-05-05 08:48 | 33.65947 | -82.31580 | 10016 ft | 151 kts | 250° |
| 2026-05-05 08:49 | 33.65583 | -82.32748 | 10016 ft | 151 kts | 250° |
| 2026-05-05 08:49 | 33.65210 | -82.33945 | 10016 ft | 151 kts | 250° |
| 2026-05-05 08:49 | 33.64843 | -82.35119 | 10016 ft | 151 kts | 250° |
| 2026-05-05 08:49 | 33.64472 | -82.36306 | 10016 ft | 151 kts | 250° |
| 2026-05-05 08:50 | 33.64103 | -82.37486 | 10016 ft | 151 kts | 250° |
| 2026-05-05 08:50 | 33.63734 | -82.38668 | 10016 ft | 151 kts | 250° |
| 2026-05-05 08:50 | 33.63365 | -82.39849 | 10015 ft | 151 kts | 250° |
| 2026-05-05 08:50 | 33.62994 | -82.41024 | 10019 ft | 151 kts | 254° |
| 2026-05-05 08:51 | 33.62611 | -82.42199 | 10048 ft | 151 kts | 255° |
| 2026-05-05 08:51 | 33.62248 | -82.43376 | 10051 ft | 152 kts | 255° |
| 2026-05-05 08:51 | 33.61877 | -82.44576 | 10052 ft | 153 kts | 255° |
| 2026-05-05 08:51 | 33.61504 | -82.45775 | 10051 ft | 153 kts | 255° |
| 2026-05-05 08:52 | 33.61130 | -82.46975 | 10051 ft | 154 kts | 255° |
| 2026-05-05 08:52 | 33.60755 | -82.48174 | 10051 ft | 154 kts | 255° |
| 2026-05-05 08:52 | 33.60378 | -82.49380 | 10051 ft | 154 kts | 255° |
| 2026-05-05 08:52 | 33.59999 | -82.50587 | 10051 ft | 154 kts | 255° |
| 2026-05-05 08:53 | 33.59623 | -82.51786 | 10051 ft | 154 kts | 255° |
| 2026-05-05 08:53 | 33.59246 | -82.52988 | 10050 ft | 154 kts | 255° |
| 2026-05-05 08:53 | 33.58868 | -82.54192 | 10050 ft | 154 kts | 255° |
| 2026-05-05 08:53 | 33.58490 | -82.55396 | 10050 ft | 154 kts | 255° |
| 2026-05-05 08:54 | 33.58109 | -82.56604 | 10050 ft | 154 kts | 255° |
| 2026-05-05 08:54 | 33.57729 | -82.57814 | 10050 ft | 154 kts | 255° |
| 2026-05-05 08:54 | 33.57348 | -82.59023 | 10050 ft | 154 kts | 255° |
| 2026-05-05 08:54 | 33.56967 | -82.60234 | 10050 ft | 154 kts | 255° |
| 2026-05-05 08:55 | 33.56592 | -82.61426 | 10050 ft | 154 kts | 255° |
| 2026-05-05 08:55 | 33.56213 | -82.62630 | 10050 ft | 154 kts | 255° |
| 2026-05-05 08:55 | 33.55828 | -82.63849 | 10050 ft | 154 kts | 255° |
| 2026-05-05 08:55 | 33.55451 | -82.65044 | 10050 ft | 154 kts | 254° |
| 2026-05-05 08:56 | 33.55068 | -82.66257 | 10056 ft | 155 kts | 254° |
| 2026-05-05 08:56 | 33.54685 | -82.67472 | 10057 ft | 155 kts | 254° |
| 2026-05-05 08:56 | 33.54302 | -82.68687 | 10057 ft | 155 kts | 254° |
| 2026-05-05 08:56 | 33.53917 | -82.69905 | 10057 ft | 156 kts | 254° |
| 2026-05-05 08:57 | 33.53536 | -82.71111 | 10057 ft | 156 kts | 254° |
| 2026-05-05 08:57 | 33.53149 | -82.72335 | 10057 ft | 156 kts | 254° |
| 2026-05-05 08:57 | 33.52764 | -82.73553 | 10056 ft | 155 kts | 254° |
| 2026-05-05 08:57 | 33.52388 | -82.74739 | 10053 ft | 150 kts | 255° |
| 2026-05-05 08:58 | 33.52021 | -82.75897 | 10053 ft | 147 kts | 255° |
| 2026-05-05 08:58 | 33.51663 | -82.77027 | 10054 ft | 144 kts | 255° |
| 2026-05-05 08:58 | 33.51308 | -82.78149 | 10054 ft | 143 kts | 255° |
| 2026-05-05 08:58 | 33.50954 | -82.79266 | 10055 ft | 142 kts | 255° |
| 2026-05-05 08:59 | 33.50609 | -82.80354 | 10055 ft | 141 kts | 255° |
| 2026-05-05 08:59 | 33.50258 | -82.81461 | 10055 ft | 140 kts | 255° |
| 2026-05-05 08:59 | 33.49912 | -82.82555 | 10055 ft | 140 kts | 255° |
| 2026-05-05 08:59 | 33.49568 | -82.83639 | 10055 ft | 140 kts | 255° |
| 2026-05-05 09:00 | 33.49222 | -82.84729 | 10055 ft | 140 kts | 255° |
| 2026-05-05 09:00 | 33.48876 | -82.85820 | 10055 ft | 139 kts | 255° |
| 2026-05-05 09:00 | 33.48530 | -82.86911 | 10055 ft | 139 kts | 255° |
| 2026-05-05 09:00 | 33.48183 | -82.88001 | 10055 ft | 139 kts | 255° |
| 2026-05-05 09:01 | 33.47842 | -82.89075 | 10055 ft | 139 kts | 255° |
| 2026-05-05 09:01 | 33.47497 | -82.90160 | 10055 ft | 139 kts | 255° |
| 2026-05-05 09:01 | 33.47149 | -82.91254 | 10055 ft | 139 kts | 255° |
| 2026-05-05 09:01 | 33.46804 | -82.92338 | 10055 ft | 139 kts | 255° |
| 2026-05-05 09:02 | 33.46458 | -82.93426 | 10055 ft | 139 kts | 255° |
| 2026-05-05 09:02 | 33.46114 | -82.94506 | 10055 ft | 139 kts | 255° |
| 2026-05-05 09:02 | 33.45768 | -82.95593 | 10055 ft | 139 kts | 255° |
| 2026-05-05 09:02 | 33.45423 | -82.96676 | 10055 ft | 139 kts | 255° |
| 2026-05-05 09:03 | 33.45079 | -82.97757 | 10055 ft | 139 kts | 255° |
| 2026-05-05 09:03 | 33.44734 | -82.98839 | 10055 ft | 139 kts | 255° |
| 2026-05-05 09:03 | 33.44389 | -82.99919 | 10054 ft | 139 kts | 255° |
| 2026-05-05 09:03 | 33.44043 | -83.01002 | 10054 ft | 139 kts | 255° |
| 2026-05-05 09:04 | 33.43696 | -83.02090 | 10054 ft | 139 kts | 255° |
| 2026-05-05 09:04 | 33.43351 | -83.03172 | 10054 ft | 139 kts | 255° |
| 2026-05-05 09:04 | 33.43006 | -83.04253 | 10054 ft | 139 kts | 255° |
| 2026-05-05 09:04 | 33.42659 | -83.05338 | 10054 ft | 139 kts | 255° |
| 2026-05-05 09:05 | 33.42314 | -83.06418 | 10054 ft | 139 kts | 255° |
| 2026-05-05 09:05 | 33.41969 | -83.07496 | 10054 ft | 139 kts | 255° |
| 2026-05-05 09:05 | 33.41624 | -83.08576 | 10054 ft | 139 kts | 255° |
| 2026-05-05 09:05 | 33.41278 | -83.09656 | 10054 ft | 139 kts | 255° |
| 2026-05-05 09:06 | 33.40924 | -83.10764 | 10003 ft | 143 kts | 255° |
| 2026-05-05 09:06 | 33.40568 | -83.11876 | 9992 ft | 144 kts | 255° |
| 2026-05-05 09:06 | 33.40204 | -83.13011 | 9990 ft | 144 kts | 255° |
| 2026-05-05 09:06 | 33.39844 | -83.14134 | 9990 ft | 144 kts | 255° |
| 2026-05-05 09:07 | 33.39486 | -83.15252 | 9990 ft | 144 kts | 255° |
| 2026-05-05 09:07 | 33.39125 | -83.16377 | 9990 ft | 144 kts | 255° |
| 2026-05-05 09:07 | 33.38763 | -83.17506 | 9989 ft | 144 kts | 255° |
| 2026-05-05 09:07 | 33.38406 | -83.18619 | 9989 ft | 144 kts | 255° |
| 2026-05-05 09:08 | 33.38046 | -83.19739 | 9989 ft | 144 kts | 255° |
| 2026-05-05 09:08 | 33.37685 | -83.20864 | 9989 ft | 144 kts | 255° |
| 2026-05-05 09:08 | 33.37325 | -83.21983 | 9989 ft | 144 kts | 255° |
| 2026-05-05 09:08 | 33.36965 | -83.23106 | 9989 ft | 144 kts | 255° |
| 2026-05-05 09:09 | 33.36603 | -83.24230 | 9989 ft | 144 kts | 255° |
| 2026-05-05 09:09 | 33.36240 | -83.25362 | 9989 ft | 144 kts | 255° |
| 2026-05-05 09:09 | 33.35880 | -83.26481 | 9989 ft | 144 kts | 255° |
| 2026-05-05 09:09 | 33.35518 | -83.27602 | 9989 ft | 144 kts | 255° |
| 2026-05-05 09:10 | 33.35157 | -83.28725 | 9989 ft | 144 kts | 255° |
| 2026-05-05 09:10 | 33.34800 | -83.29835 | 9989 ft | 144 kts | 255° |
| 2026-05-05 09:10 | 33.34438 | -83.30956 | 9989 ft | 144 kts | 255° |
| 2026-05-05 09:10 | 33.34078 | -83.32076 | 9989 ft | 144 kts | 255° |
| 2026-05-05 09:11 | 33.33715 | -83.33201 | 9989 ft | 144 kts | 255° |
| 2026-05-05 09:11 | 33.33351 | -83.34328 | 9989 ft | 144 kts | 255° |
| 2026-05-05 09:11 | 33.32990 | -83.35448 | 9988 ft | 144 kts | 255° |
| 2026-05-05 09:11 | 33.32632 | -83.36558 | 9988 ft | 144 kts | 255° |
| 2026-05-05 09:12 | 33.32270 | -83.37680 | 9988 ft | 144 kts | 255° |
| 2026-05-05 09:12 | 33.31907 | -83.38802 | 9988 ft | 144 kts | 255° |
| 2026-05-05 09:12 | 33.31545 | -83.39924 | 9988 ft | 144 kts | 255° |
| 2026-05-05 09:12 | 33.31182 | -83.41044 | 9988 ft | 144 kts | 255° |
| 2026-05-05 09:13 | 33.30825 | -83.42149 | 9988 ft | 144 kts | 255° |
| 2026-05-05 09:13 | 33.30462 | -83.43273 | 9988 ft | 144 kts | 255° |
| 2026-05-05 09:13 | 33.30098 | -83.44396 | 9988 ft | 144 kts | 255° |
| 2026-05-05 09:13 | 33.29736 | -83.45515 | 9988 ft | 144 kts | 255° |
| 2026-05-05 09:14 | 33.29374 | -83.46634 | 9988 ft | 144 kts | 255° |
| 2026-05-05 09:14 | 33.29016 | -83.47740 | 9988 ft | 144 kts | 255° |
| 2026-05-05 09:14 | 33.28651 | -83.48864 | 9988 ft | 144 kts | 255° |
| 2026-05-05 09:14 | 33.28288 | -83.49986 | 9988 ft | 144 kts | 255° |
| 2026-05-05 09:15 | 33.27929 | -83.51091 | 9988 ft | 144 kts | 255° |
| 2026-05-05 09:15 | 33.27565 | -83.52214 | 9988 ft | 144 kts | 255° |
| 2026-05-05 09:15 | 33.27204 | -83.53326 | 9987 ft | 144 kts | 255° |
| 2026-05-05 09:15 | 33.26842 | -83.54443 | 9987 ft | 144 kts | 255° |
| 2026-05-05 09:16 | 33.26479 | -83.55560 | 9987 ft | 144 kts | 255° |
| 2026-05-05 09:16 | 33.26114 | -83.56685 | 9987 ft | 144 kts | 255° |
| 2026-05-05 09:16 | 33.25754 | -83.57791 | 9987 ft | 144 kts | 255° |
| 2026-05-05 09:16 | 33.25391 | -83.58908 | 9987 ft | 144 kts | 255° |
| 2026-05-05 09:17 | 33.25026 | -83.60031 | 9987 ft | 144 kts | 255° |
| 2026-05-05 09:17 | 33.24666 | -83.61137 | 9987 ft | 144 kts | 255° |
| 2026-05-05 09:17 | 33.24301 | -83.62260 | 9987 ft | 144 kts | 255° |
| 2026-05-05 09:17 | 33.23936 | -83.63381 | 9987 ft | 144 kts | 255° |
| 2026-05-05 09:18 | 33.23577 | -83.64483 | 9987 ft | 144 kts | 255° |
| 2026-05-05 09:18 | 33.23212 | -83.65601 | 9992 ft | 144 kts | 255° |
| 2026-05-05 09:18 | 33.22846 | -83.66725 | 9993 ft | 144 kts | 255° |
| 2026-05-05 09:18 | 33.22483 | -83.67841 | 9993 ft | 145 kts | 255° |
| 2026-05-05 09:19 | 33.22115 | -83.68970 | 9993 ft | 145 kts | 255° |
| 2026-05-05 09:19 | 33.21751 | -83.70084 | 9993 ft | 145 kts | 255° |
| 2026-05-05 09:19 | 33.21384 | -83.71210 | 9993 ft | 145 kts | 255° |
| 2026-05-05 09:19 | 33.21012 | -83.72349 | 9993 ft | 145 kts | 255° |
| 2026-05-05 09:20 | 33.20647 | -83.73466 | 9993 ft | 145 kts | 255° |
| 2026-05-05 09:20 | 33.20280 | -83.74590 | 9993 ft | 145 kts | 255° |
| 2026-05-05 09:20 | 33.19910 | -83.75721 | 9992 ft | 145 kts | 255° |
| 2026-05-05 09:20 | 33.19541 | -83.76849 | 9992 ft | 145 kts | 255° |
| 2026-05-05 09:21 | 33.19167 | -83.77983 | 9996 ft | 146 kts | 256° |
| 2026-05-05 09:21 | 33.18798 | -83.79108 | 9999 ft | 146 kts | 256° |
| 2026-05-05 09:21 | 33.18427 | -83.80248 | 9999 ft | 147 kts | 256° |
| 2026-05-05 09:21 | 33.18053 | -83.81393 | 9999 ft | 147 kts | 256° |
| 2026-05-05 09:22 | 33.17683 | -83.82523 | 9999 ft | 147 kts | 256° |
| 2026-05-05 09:22 | 33.17309 | -83.83666 | 9999 ft | 148 kts | 256° |
| 2026-05-05 09:22 | 33.16933 | -83.84816 | 9999 ft | 148 kts | 256° |
| 2026-05-05 09:22 | 33.16559 | -83.85954 | 9998 ft | 148 kts | 256° |
| 2026-05-05 09:23 | 33.16185 | -83.87095 | 9998 ft | 148 kts | 256° |
| 2026-05-05 09:23 | 33.15806 | -83.88251 | 9998 ft | 148 kts | 256° |
| 2026-05-05 09:23 | 33.15433 | -83.89388 | 9998 ft | 148 kts | 256° |
| 2026-05-05 09:23 | 33.15056 | -83.90537 | 9998 ft | 148 kts | 256° |
| 2026-05-05 09:24 | 33.14680 | -83.91681 | 9998 ft | 148 kts | 256° |
| 2026-05-05 09:24 | 33.14305 | -83.92821 | 9998 ft | 148 kts | 256° |
| 2026-05-05 09:24 | 33.13930 | -83.93963 | 9998 ft | 148 kts | 256° |
| 2026-05-05 09:24 | 33.13553 | -83.95110 | 9998 ft | 148 kts | 256° |
| 2026-05-05 09:25 | 33.13174 | -83.96259 | 9998 ft | 148 kts | 256° |
| 2026-05-05 09:25 | 33.12799 | -83.97401 | 9998 ft | 148 kts | 256° |
| 2026-05-05 09:25 | 33.12423 | -83.98543 | 9998 ft | 148 kts | 256° |
| 2026-05-05 09:25 | 33.12050 | -83.99674 | 9998 ft | 148 kts | 256° |
| 2026-05-05 09:26 | 33.11669 | -84.00829 | 9998 ft | 148 kts | 256° |
| 2026-05-05 09:26 | 33.11297 | -84.01960 | 9998 ft | 148 kts | 256° |
| 2026-05-05 09:26 | 33.10920 | -84.03103 | 9998 ft | 148 kts | 256° |
| 2026-05-05 09:26 | 33.10543 | -84.04247 | 9998 ft | 148 kts | 256° |
| 2026-05-05 09:27 | 33.10168 | -84.05383 | 9997 ft | 148 kts | 256° |
| 2026-05-05 09:27 | 33.09788 | -84.06535 | 9997 ft | 148 kts | 256° |
| 2026-05-05 09:27 | 33.09411 | -84.07675 | 9997 ft | 148 kts | 256° |
| 2026-05-05 09:27 | 33.09035 | -84.08817 | 9997 ft | 148 kts | 256° |
| 2026-05-05 09:28 | 33.08658 | -84.09956 | 9997 ft | 148 kts | 256° |
| 2026-05-05 09:28 | 33.08280 | -84.11100 | 9997 ft | 148 kts | 256° |
| 2026-05-05 09:28 | 33.07905 | -84.12233 | 9997 ft | 148 kts | 256° |
| 2026-05-05 09:28 | 33.07525 | -84.13381 | 9997 ft | 148 kts | 256° |
| 2026-05-05 09:29 | 33.07148 | -84.14523 | 9997 ft | 148 kts | 256° |
| 2026-05-05 09:29 | 33.06771 | -84.15662 | 9997 ft | 148 kts | 256° |
| 2026-05-05 09:29 | 33.06393 | -84.16802 | 9997 ft | 148 kts | 256° |
| 2026-05-05 09:29 | 33.06015 | -84.17945 | 9997 ft | 148 kts | 256° |
| 2026-05-05 09:30 | 33.05641 | -84.19073 | 9997 ft | 148 kts | 256° |
| 2026-05-05 09:30 | 33.05262 | -84.20216 | 9997 ft | 148 kts | 256° |
| 2026-05-05 09:30 | 33.04884 | -84.21355 | 9997 ft | 148 kts | 256° |
| 2026-05-05 09:30 | 33.04507 | -84.22494 | 9997 ft | 148 kts | 256° |
| 2026-05-05 09:31 | 33.04129 | -84.23631 | 9997 ft | 148 kts | 256° |
| 2026-05-05 09:31 | 33.03750 | -84.24773 | 9997 ft | 148 kts | 256° |
| 2026-05-05 09:31 | 33.03371 | -84.25914 | 9996 ft | 148 kts | 256° |
| 2026-05-05 09:31 | 33.02994 | -84.27048 | 9996 ft | 147 kts | 256° |
| 2026-05-05 09:32 | 33.02616 | -84.28187 | 9996 ft | 147 kts | 256° |
| 2026-05-05 09:32 | 33.02239 | -84.29321 | 9996 ft | 147 kts | 256° |
| 2026-05-05 09:32 | 33.01859 | -84.30465 | 9996 ft | 147 kts | 256° |
| 2026-05-05 09:32 | 33.01480 | -84.31602 | 9996 ft | 147 kts | 256° |
| 2026-05-05 09:33 | 33.01103 | -84.32737 | 9996 ft | 147 kts | 256° |
| 2026-05-05 09:33 | 33.00726 | -84.33868 | 9996 ft | 147 kts | 256° |
| 2026-05-05 09:33 | 33.00347 | -84.35006 | 9996 ft | 147 kts | 256° |
| 2026-05-05 09:33 | 32.99965 | -84.36153 | 9996 ft | 147 kts | 256° |
| 2026-05-05 09:34 | 32.99588 | -84.37286 | 9996 ft | 147 kts | 256° |
| 2026-05-05 09:34 | 32.99205 | -84.38432 | 9996 ft | 147 kts | 256° |
| 2026-05-05 09:34 | 32.98828 | -84.39562 | 9996 ft | 147 kts | 256° |
| 2026-05-05 09:34 | 32.98450 | -84.40696 | 9996 ft | 147 kts | 256° |
| 2026-05-05 09:35 | 32.98070 | -84.41836 | 9996 ft | 147 kts | 256° |
| 2026-05-05 09:35 | 32.97310 | -84.44113 | 9996 ft | 147 kts | 256° |
| 2026-05-05 09:35 | 32.96933 | -84.45242 | 9995 ft | 147 kts | 256° |
| 2026-05-05 09:36 | 32.96555 | -84.46377 | 10003 ft | 146 kts | 255° |
| 2026-05-05 09:36 | 32.96184 | -84.47510 | 9997 ft | 145 kts | 253° |
| 2026-05-05 09:36 | 32.95811 | -84.48618 | 9996 ft | 144 kts | 253° |
| 2026-05-05 09:36 | 32.95440 | -84.49717 | 9996 ft | 143 kts | 253° |
| 2026-05-05 09:37 | 32.95071 | -84.50815 | 9996 ft | 142 kts | 253° |
| 2026-05-05 09:37 | 32.94705 | -84.51907 | 9996 ft | 142 kts | 253° |
| 2026-05-05 09:37 | 32.94334 | -84.53010 | 9996 ft | 142 kts | 253° |
| 2026-05-05 09:37 | 32.93969 | -84.54099 | 9996 ft | 142 kts | 253° |
| 2026-05-05 09:38 | 32.93608 | -84.55177 | 9996 ft | 141 kts | 253° |
| 2026-05-05 09:38 | 32.93240 | -84.56273 | 9996 ft | 141 kts | 253° |
| 2026-05-05 09:38 | 32.92875 | -84.57362 | 9996 ft | 141 kts | 253° |
| 2026-05-05 09:38 | 32.92509 | -84.58451 | 9996 ft | 141 kts | 253° |
| 2026-05-05 09:39 | 32.92143 | -84.59541 | 9996 ft | 141 kts | 253° |
| 2026-05-05 09:39 | 32.91781 | -84.60621 | 9996 ft | 141 kts | 253° |
| 2026-05-05 09:39 | 32.91415 | -84.61711 | 9996 ft | 141 kts | 253° |
| 2026-05-05 09:39 | 32.91048 | -84.62804 | 9996 ft | 141 kts | 253° |
| 2026-05-05 09:40 | 32.90683 | -84.63889 | 9996 ft | 141 kts | 253° |
| 2026-05-05 09:40 | 32.90318 | -84.64975 | 9996 ft | 141 kts | 253° |
| 2026-05-05 09:40 | 32.89933 | -84.66120 | 10002 ft | 141 kts | 253° |
| 2026-05-05 09:40 | 32.89565 | -84.67215 | 10002 ft | 142 kts | 253° |
| 2026-05-05 09:41 | 32.89198 | -84.68305 | 10002 ft | 142 kts | 253° |
| 2026-05-05 09:41 | 32.88829 | -84.69400 | 10001 ft | 142 kts | 253° |
| 2026-05-05 09:41 | 32.88461 | -84.70495 | 10001 ft | 142 kts | 253° |
| 2026-05-05 09:41 | 32.88092 | -84.71588 | 10001 ft | 142 kts | 253° |
| 2026-05-05 09:42 | 32.87720 | -84.72694 | 10001 ft | 143 kts | 253° |
| 2026-05-05 09:42 | 32.87350 | -84.73791 | 10001 ft | 143 kts | 253° |
| 2026-05-05 09:42 | 32.86982 | -84.74883 | 10001 ft | 143 kts | 253° |
| 2026-05-05 09:42 | 32.86611 | -84.75981 | 10001 ft | 143 kts | 253° |
| 2026-05-05 09:43 | 32.86244 | -84.77069 | 10001 ft | 143 kts | 253° |
| 2026-05-05 09:43 | 32.85871 | -84.78172 | 10001 ft | 143 kts | 253° |
| 2026-05-05 09:43 | 32.85504 | -84.79260 | 10001 ft | 143 kts | 253° |
| 2026-05-05 09:43 | 32.85131 | -84.80364 | 10001 ft | 143 kts | 253° |
| 2026-05-05 09:44 | 32.84760 | -84.81463 | 10000 ft | 142 kts | 253° |
| 2026-05-05 09:44 | 32.84391 | -84.82553 | 10000 ft | 142 kts | 253° |
| 2026-05-05 09:44 | 32.84020 | -84.83653 | 10000 ft | 142 kts | 253° |
| 2026-05-05 09:44 | 32.83648 | -84.84751 | 10000 ft | 142 kts | 253° |
| 2026-05-05 09:45 | 32.83279 | -84.85843 | 10000 ft | 142 kts | 253° |
| 2026-05-05 09:45 | 32.82910 | -84.86932 | 10000 ft | 142 kts | 253° |
| 2026-05-05 09:45 | 32.82538 | -84.88032 | 10000 ft | 142 kts | 253° |
| 2026-05-05 09:45 | 32.82167 | -84.89124 | 10000 ft | 142 kts | 253° |
| 2026-05-05 09:46 | 32.81798 | -84.90214 | 10000 ft | 142 kts | 253° |
| 2026-05-05 09:46 | 32.81428 | -84.91305 | 10000 ft | 142 kts | 253° |
| 2026-05-05 09:46 | 32.81057 | -84.92402 | 10000 ft | 142 kts | 253° |
| 2026-05-05 09:46 | 32.80685 | -84.93497 | 10000 ft | 142 kts | 253° |
| 2026-05-05 09:47 | 32.80318 | -84.94580 | 10000 ft | 142 kts | 253° |
| 2026-05-05 09:47 | 32.79945 | -84.95677 | 10000 ft | 142 kts | 253° |
| 2026-05-05 09:47 | 32.79574 | -84.96770 | 9999 ft | 142 kts | 253° |
| 2026-05-05 09:47 | 32.79201 | -84.97870 | 9999 ft | 142 kts | 253° |
| 2026-05-05 09:48 | 32.78833 | -84.98953 | 9999 ft | 142 kts | 253° |
| 2026-05-05 09:48 | 32.78460 | -85.00051 | 9999 ft | 142 kts | 253° |
| 2026-05-05 09:48 | 32.78088 | -85.01144 | 9999 ft | 142 kts | 253° |
| 2026-05-05 09:48 | 32.77716 | -85.02237 | 9999 ft | 142 kts | 253° |
| 2026-05-05 09:49 | 32.77345 | -85.03329 | 9999 ft | 142 kts | 253° |
| 2026-05-05 09:49 | 32.76977 | -85.04409 | 9999 ft | 142 kts | 253° |
| 2026-05-05 09:49 | 32.76604 | -85.05504 | 9999 ft | 142 kts | 253° |
| 2026-05-05 09:49 | 32.76231 | -85.06601 | 9999 ft | 142 kts | 253° |
| 2026-05-05 09:50 | 32.75862 | -85.07683 | 9999 ft | 142 kts | 253° |
| 2026-05-05 09:50 | 32.75489 | -85.08778 | 9999 ft | 142 kts | 253° |
| 2026-05-05 09:50 | 32.75116 | -85.09872 | 9999 ft | 142 kts | 253° |
| 2026-05-05 09:50 | 32.74748 | -85.10953 | 9999 ft | 142 kts | 253° |
| 2026-05-05 09:51 | 32.74374 | -85.12046 | 9998 ft | 142 kts | 253° |
| 2026-05-05 09:51 | 32.74001 | -85.13136 | 9990 ft | 143 kts | 253° |
| 2026-05-05 09:51 | 32.73624 | -85.14242 | 9989 ft | 144 kts | 253° |
| 2026-05-05 09:51 | 32.73247 | -85.15347 | 9988 ft | 144 kts | 253° |
| 2026-05-05 09:52 | 32.72867 | -85.16461 | 9988 ft | 145 kts | 253° |
| 2026-05-05 09:52 | 32.72489 | -85.17565 | 9988 ft | 145 kts | 253° |
| 2026-05-05 09:52 | 32.72108 | -85.18681 | 9988 ft | 145 kts | 253° |
| 2026-05-05 09:52 | 32.71731 | -85.19784 | 9988 ft | 145 kts | 253° |
| 2026-05-05 09:53 | 32.71349 | -85.20902 | 9988 ft | 145 kts | 253° |
| 2026-05-05 09:53 | 32.70971 | -85.22005 | 9988 ft | 145 kts | 253° |
| 2026-05-05 09:53 | 32.70590 | -85.23118 | 9988 ft | 145 kts | 253° |
| 2026-05-05 09:53 | 32.70211 | -85.24226 | 9988 ft | 145 kts | 253° |
| 2026-05-05 09:54 | 32.69828 | -85.25346 | 9987 ft | 145 kts | 253° |
| 2026-05-05 09:54 | 32.69450 | -85.26447 | 9987 ft | 145 kts | 253° |
| 2026-05-05 09:54 | 32.69070 | -85.27557 | 9987 ft | 145 kts | 253° |
| 2026-05-05 09:54 | 32.68690 | -85.28664 | 9987 ft | 145 kts | 253° |
| 2026-05-05 09:55 | 32.68304 | -85.29787 | 9987 ft | 145 kts | 253° |
| 2026-05-05 09:55 | 32.67925 | -85.30894 | 9987 ft | 145 kts | 253° |
| 2026-05-05 09:55 | 32.67545 | -85.32002 | 9987 ft | 145 kts | 253° |
| 2026-05-05 09:55 | 32.67164 | -85.33112 | 9987 ft | 145 kts | 253° |
| 2026-05-05 09:56 | 32.66781 | -85.34225 | 9987 ft | 145 kts | 253° |
| 2026-05-05 09:56 | 32.66402 | -85.35327 | 9987 ft | 145 kts | 253° |
| 2026-05-05 09:56 | 32.66019 | -85.36443 | 9987 ft | 145 kts | 253° |
| 2026-05-05 09:56 | 32.65640 | -85.37546 | 9987 ft | 145 kts | 253° |
| 2026-05-05 09:57 | 32.65257 | -85.38659 | 9987 ft | 145 kts | 253° |
| 2026-05-05 09:57 | 32.64878 | -85.39761 | 9987 ft | 145 kts | 253° |
| 2026-05-05 09:57 | 32.64499 | -85.40861 | 9987 ft | 145 kts | 253° |
| 2026-05-05 09:57 | 32.64113 | -85.41982 | 9987 ft | 145 kts | 253° |
| 2026-05-05 09:58 | 32.63732 | -85.43087 | 9986 ft | 145 kts | 253° |
| 2026-05-05 09:58 | 32.63365 | -85.44154 | 9986 ft | 145 kts | 253° |
| 2026-05-05 09:58 | 32.62985 | -85.45258 | 9986 ft | 145 kts | 253° |
| 2026-05-05 09:58 | 32.62606 | -85.46355 | 9986 ft | 145 kts | 253° |
| 2026-05-05 09:59 | 32.62220 | -85.47475 | 9986 ft | 145 kts | 253° |
| 2026-05-05 09:59 | 32.61842 | -85.48571 | 9986 ft | 145 kts | 253° |
| 2026-05-05 09:59 | 32.61462 | -85.49673 | 9986 ft | 145 kts | 253° |
| 2026-05-05 09:59 | 32.61078 | -85.50783 | 9986 ft | 145 kts | 253° |
| 2026-05-05 10:00 | 32.60694 | -85.51896 | 9986 ft | 145 kts | 253° |
| 2026-05-05 10:00 | 32.60316 | -85.52992 | 9986 ft | 145 kts | 253° |
| 2026-05-05 10:00 | 32.59930 | -85.54106 | 9986 ft | 145 kts | 253° |
| 2026-05-05 10:00 | 32.59551 | -85.55203 | 9986 ft | 145 kts | 253° |
| 2026-05-05 10:01 | 32.59167 | -85.56315 | 9986 ft | 145 kts | 253° |
| 2026-05-05 10:01 | 32.58782 | -85.57426 | 9986 ft | 145 kts | 253° |
| 2026-05-05 10:01 | 32.58403 | -85.58523 | 9986 ft | 145 kts | 253° |
| 2026-05-05 10:01 | 32.58019 | -85.59631 | 9986 ft | 145 kts | 253° |
| 2026-05-05 10:02 | 32.57635 | -85.60740 | 9985 ft | 144 kts | 253° |
| 2026-05-05 10:02 | 32.57256 | -85.61836 | 9985 ft | 144 kts | 253° |
| 2026-05-05 10:02 | 32.56871 | -85.62946 | 9985 ft | 144 kts | 253° |
| 2026-05-05 10:02 | 32.56487 | -85.64053 | 9985 ft | 144 kts | 253° |
| 2026-05-05 10:03 | 32.56107 | -85.65151 | 9986 ft | 144 kts | 253° |
| 2026-05-05 10:03 | 32.55721 | -85.66260 | 10008 ft | 144 kts | 253° |
| 2026-05-05 10:03 | 32.55341 | -85.67357 | 10025 ft | 144 kts | 253° |
| 2026-05-05 10:03 | 32.54960 | -85.68454 | 10028 ft | 144 kts | 253° |
| 2026-05-05 10:04 | 32.54574 | -85.69569 | 10028 ft | 145 kts | 253° |
| 2026-05-05 10:04 | 32.54192 | -85.70668 | 10028 ft | 145 kts | 253° |
| 2026-05-05 10:04 | 32.53806 | -85.71780 | 10028 ft | 146 kts | 253° |
| 2026-05-05 10:04 | 32.53415 | -85.72903 | 10028 ft | 146 kts | 253° |
| 2026-05-05 10:05 | 32.52901 | -85.73946 | 10029 ft | 149 kts | 242° |
| 2026-05-05 10:05 | 32.52283 | -85.74963 | 9833 ft | 157 kts | 241° |
| 2026-05-05 10:05 | 32.51631 | -85.76015 | 9466 ft | 160 kts | 240° |
| 2026-05-05 10:05 | 32.50966 | -85.77081 | 9094 ft | 162 kts | 240° |
| 2026-05-05 10:06 | 32.50292 | -85.78155 | 8720 ft | 163 kts | 240° |
| 2026-05-05 10:06 | 32.49611 | -85.79242 | 8343 ft | 163 kts | 240° |
| 2026-05-05 10:06 | 32.48940 | -85.80307 | 7971 ft | 163 kts | 240° |
| 2026-05-05 10:06 | 32.48262 | -85.81381 | 7594 ft | 162 kts | 239° |
| 2026-05-05 10:07 | 32.47585 | -85.82453 | 7215 ft | 162 kts | 239° |
| 2026-05-05 10:07 | 32.46919 | -85.83508 | 6841 ft | 161 kts | 239° |
| 2026-05-05 10:07 | 32.46252 | -85.84563 | 6465 ft | 160 kts | 239° |
| 2026-05-05 10:07 | 32.45586 | -85.85615 | 6089 ft | 160 kts | 239° |
| 2026-05-05 10:08 | 32.44919 | -85.86669 | 5713 ft | 161 kts | 238° |
| 2026-05-05 10:08 | 32.44244 | -85.87736 | 5343 ft | 164 kts | 238° |
| 2026-05-05 10:08 | 32.43563 | -85.88812 | 4975 ft | 166 kts | 238° |
| 2026-05-05 10:08 | 32.42867 | -85.89912 | 4601 ft | 167 kts | 237° |
| 2026-05-05 10:09 | 32.42166 | -85.91019 | 4227 ft | 168 kts | 237° |
| 2026-05-05 10:09 | 32.41462 | -85.92131 | 3852 ft | 169 kts | 237° |
| 2026-05-05 10:09 | 32.40755 | -85.93247 | 3476 ft | 169 kts | 236° |
| 2026-05-05 10:09 | 32.40050 | -85.94359 | 3102 ft | 169 kts | 236° |
| 2026-05-05 10:10 | 32.39346 | -85.95470 | 2733 ft | 169 kts | 236° |
| 2026-05-05 10:10 | 32.38676 | -85.96523 | 2617 ft | 154 kts | 235° |
| 2026-05-05 10:10 | 32.38061 | -85.97487 | 2596 ft | 138 kts | 236° |
| 2026-05-05 10:10 | 32.37510 | -85.98350 | 2593 ft | 124 kts | 236° |
| 2026-05-05 10:11 | 32.37011 | -85.99133 | 2593 ft | 113 kts | 236° |
| 2026-05-05 10:11 | 32.36556 | -85.99847 | 2594 ft | 104 kts | 236° |
| 2026-05-05 10:11 | 32.36144 | -86.00494 | 2593 ft | 95 kts | 237° |
| 2026-05-05 10:11 | 32.35764 | -86.01090 | 2584 ft | 87 kts | 237° |
| 2026-05-05 10:12 | 32.35402 | -86.01660 | 2522 ft | 85 kts | 237° |
| 2026-05-05 10:12 | 32.35055 | -86.02207 | 2467 ft | 82 kts | 237° |
| 2026-05-05 10:12 | 32.34717 | -86.02741 | 2409 ft | 80 kts | 237° |
| 2026-05-05 10:12 | 32.34382 | -86.03270 | 2325 ft | 81 kts | 237° |
| 2026-05-05 10:13 | 32.34034 | -86.03818 | 2481 ft | 82 kts | 237° |
| 2026-05-05 10:13 | 32.33656 | -86.04420 | 2618 ft | 103 kts | 237° |
| 2026-05-05 10:13 | 32.33174 | -86.05190 | 2640 ft | 130 kts | 236° |
| 2026-05-05 10:13 | 32.32603 | -86.06091 | 2624 ft | 141 kts | 236° |
| 2026-05-05 10:14 | 32.31992 | -86.07050 | 2616 ft | 147 kts | 236° |
| 2026-05-05 10:14 | 32.31368 | -86.08026 | 2613 ft | 150 kts | 236° |
| 2026-05-05 10:14 | 32.30732 | -86.09025 | 2611 ft | 152 kts | 236° |
| 2026-05-05 10:14 | 32.30082 | -86.10045 | 2610 ft | 154 kts | 236° |
| 2026-05-05 10:15 | 32.29429 | -86.11070 | 2610 ft | 155 kts | 236° |
| 2026-05-05 10:15 | 32.28780 | -86.12090 | 2609 ft | 155 kts | 236° |
| 2026-05-05 10:15 | 32.28186 | -86.13169 | 2493 ft | 160 kts | 255° |
| 2026-05-05 10:15 | 32.28059 | -86.14497 | 2390 ft | 162 kts | 270° |
| 2026-05-05 10:16 | 32.28063 | -86.15842 | 2271 ft | 164 kts | 274° |
| 2026-05-05 10:16 | 32.28133 | -86.17214 | 2149 ft | 166 kts | 276° |
| 2026-05-05 10:16 | 32.28233 | -86.18579 | 2036 ft | 166 kts | 277° |
| 2026-05-05 10:16 | 32.28346 | -86.19941 | 2010 ft | 162 kts | 278° |
| 2026-05-05 10:17 | 32.28460 | -86.21244 | 2006 ft | 158 kts | 278° |
| 2026-05-05 10:17 | 32.28577 | -86.22550 | 2007 ft | 156 kts | 278° |
| 2026-05-05 10:17 | 32.28694 | -86.23839 | 2007 ft | 154 kts | 278° |
| 2026-05-05 10:17 | 32.28811 | -86.25120 | 2008 ft | 153 kts | 278° |
| 2026-05-05 10:18 | 32.28926 | -86.26394 | 2008 ft | 152 kts | 278° |
| 2026-05-05 10:18 | 32.29041 | -86.27650 | 1914 ft | 155 kts | 278° |
| 2026-05-05 10:18 | 32.29149 | -86.28834 | 1724 ft | 138 kts | 278° |
| 2026-05-05 10:18 | 32.29243 | -86.29893 | 1581 ft | 119 kts | 278° |
| 2026-05-05 10:19 | 32.29324 | -86.30806 | 1448 ft | 104 kts | 278° |
| 2026-05-05 10:19 | 32.29401 | -86.31643 | 1302 ft | 100 kts | 278° |
| 2026-05-05 10:19 | 32.29474 | -86.32444 | 1168 ft | 98 kts | 278° |
| 2026-05-05 10:19 | 32.29547 | -86.33250 | 1035 ft | 97 kts | 278° |
| 2026-05-05 10:20 | 32.29620 | -86.34057 | 903 ft | 97 kts | 277° |
| 2026-05-05 10:20 | 32.29692 | -86.34862 | 771 ft | 97 kts | 277° |
| 2026-05-05 10:20 | 32.29764 | -86.35668 | 639 ft | 97 kts | 277° |
| 2026-05-05 10:20 | 32.29836 | -86.36468 | 508 ft | 97 kts | 277° |
| 2026-05-05 10:21 | 32.29907 | -86.37252 | 382 ft | 97 kts | 276° |
| 2026-05-05 10:21 | 32.29977 | -86.38030 | 257 ft | 93 kts | 277° |
| 2026-05-05 10:21 | 32.30040 | -86.38772 | 194 ft | 83 kts | 277° |
| 2026-05-05 10:21 | 32.30090 | -86.39320 | 201 ft | 54 kts | 276° |
| 2026-05-05 10:22 | 32.30144 | -86.39529 | 204 ft | 16 kts | 348° |
| 2026-05-05 10:22 | 32.30250 | -86.39494 | 202 ft | 17 kts | 75° |
| 2026-05-05 10:22 | 32.30268 | -86.39349 | 201 ft | 17 kts | 22° |
| 2026-05-05 10:22 | 32.30342 | -86.39401 | 201 ft | 0 kts | 347° |
| 2026-05-05 10:23 | 32.30343 | -86.39401 | 201 ft | 0 kts | 347° |